Time;durP1;ratioP1;P1;durP2;ratioP2;P2;SDS_P1;SDS_P2;PMS_P1;PMS_P2;Temp;Humidity;BMP_temperature;BMP_pressure;BME280_temperature;BME280_humidity;BME280_pressure;Samples;Min_cycle;Max_cycle;Signal;HPM_P1;HPM_P2
2022/12/12 00:00:14;;;;;;;4.72;2.58;;;;;;;;;;5008693;28;20485;-63
2022/12/12 00:02:45;;;;;;;6.20;2.63;;;;;;;;;;4976638;28;20202;-63
2022/12/12 00:05:29;;;;;;;4.45;2.65;;;;;;;;;;5008728;28;20057;-63
2022/12/12 00:08:17;;;;;;;5.00;2.92;;;;;;;;;;4950592;29;20055;-63
2022/12/12 00:11:08;;;;;;;7.30;2.33;;;;;;;;;;4950528;29;20059;-63
2022/12/12 00:13:56;;;;;;;3.58;2.10;;;;;;;;;;4903091;29;20075;-63
2022/12/12 00:16:28;;;;;;;3.97;2.53;;;;;;;;;;4919258;29;20051;-63
2022/12/12 00:18:58;;;;;;;5.63;2.47;;;;;;;;;;4950423;29;20078;-63
2022/12/12 00:21:29;;;;;;;6.32;2.38;;;;;;;;;;4934499;29;20067;-63
2022/12/12 00:23:59;;;;;;;4.88;2.75;;;;;;;;;;4950476;29;20047;-63
2022/12/12 00:26:32;;;;;;;4.95;2.70;;;;;;;;;;4950684;29;20062;-64
2022/12/12 00:29:03;;;;;;;5.60;2.50;;;;;;;;;;4950486;29;20055;-63
2022/12/12 00:31:33;;;;;;;4.50;2.50;;;;;;;;;;4918995;29;20066;-63
2022/12/12 00:34:03;;;;;;;6.95;2.40;;;;;;;;;;4950243;28;20055;-62
2022/12/12 00:36:32;;;;;;;10.38;2.60;;;;;;;;;;4950652;29;20059;-63
2022/12/12 00:39:03;;;;;;;7.15;3.00;;;;;;;;;;4969115;28;20065;-63
2022/12/12 00:41:33;;;;;;;5.65;1.88;;;;;;;;;;4969689;28;20471;-63
2022/12/12 00:44:03;;;;;;;3.97;2.30;;;;;;;;;;4969550;28;20059;-63
2022/12/12 00:46:33;;;;;;;5.45;2.20;;;;;;;;;;4953485;28;20054;-63
2022/12/12 00:49:03;;;;;;;6.35;2.47;;;;;;;;;;4969569;28;20042;-63
2022/12/12 00:51:33;;;;;;;5.57;2.35;;;;;;;;;;4969202;28;20511;-63
2022/12/12 00:54:02;;;;;;;4.10;2.58;;;;;;;;;;4978586;28;20058;-63
2022/12/12 00:56:32;;;;;;;6.57;2.35;;;;;;;;;;4971952;28;20065;-63
2022/12/12 00:59:03;;;;;;;5.05;2.45;;;;;;;;;;4988829;28;20061;-63
2022/12/12 01:01:34;;;;;;;8.25;2.80;;;;;;;;;;4988797;28;20057;-63
2022/12/12 01:04:05;;;;;;;7.22;1.90;;;;;;;;;;4956535;28;20414;-63
2022/12/12 01:06:35;;;;;;;7.68;2.55;;;;;;;;;;4972590;28;20054;-63
2022/12/12 01:09:05;;;;;;;9.30;2.75;;;;;;;;;;4972532;28;20062;-63
2022/12/12 01:11:34;;;;;;;7.57;2.40;;;;;;;;;;4988878;28;20053;-63
2022/12/12 01:14:05;;;;;;;3.97;2.25;;;;;;;;;;4972298;28;20058;-63
2022/12/12 01:16:35;;;;;;;6.32;2.28;;;;;;;;;;4988714;28;20053;-63
2022/12/12 01:19:04;;;;;;;6.78;2.53;;;;;;;;;;5025126;28;20057;-63
2022/12/12 01:21:35;;;;;;;6.35;3.00;;;;;;;;;;5011662;28;20061;-62
2022/12/12 01:24:05;;;;;;;5.57;2.10;;;;;;;;;;5030428;28;20389;-62
2022/12/12 01:26:36;;;;;;;8.73;2.60;;;;;;;;;;5015682;28;20068;-62
2022/12/12 01:29:06;;;;;;;3.45;2.33;;;;;;;;;;5031860;28;20050;-62
2022/12/12 01:31:36;;;;;;;3.33;2.10;;;;;;;;;;5034299;28;20445;-63
2022/12/12 01:34:06;;;;;;;5.30;2.63;;;;;;;;;;5034182;28;20084;-63
2022/12/12 01:36:36;;;;;;;5.55;2.05;;;;;;;;;;5048668;28;20417;-63
2022/12/12 01:39:05;;;;;;;5.43;2.63;;;;;;;;;;5051544;28;20057;-63
2022/12/12 01:41:35;;;;;;;6.15;2.55;;;;;;;;;;5018250;28;20558;-64
2022/12/12 01:44:38;;;;;;;4.55;2.75;;;;;;;;;;5051394;28;20068;-63
2022/12/12 01:47:09;;;;;;;6.07;2.92;;;;;;;;;;5051540;28;20049;-63
2022/12/12 01:49:41;;;;;;;7.63;2.78;;;;;;;;;;5051141;28;20056;-63
2022/12/12 01:52:16;;;;;;;6.35;2.78;;;;;;;;;;5051158;28;20053;-63
2022/12/12 01:54:50;;;;;;;8.15;2.95;;;;;;;;;;5051267;28;20049;-63
2022/12/12 01:57:27;;;;;;;5.97;2.55;;;;;;;;;;5050564;28;20061;-63
2022/12/12 02:00:00;;;;;;;5.95;1.90;;;;;;;;;;5051058;28;20537;-63
2022/12/12 02:02:31;;;;;;;4.63;2.58;;;;;;;;;;5051646;28;20053;-63
2022/12/12 02:05:08;;;;;;;6.07;2.60;;;;;;;;;;5050813;28;20049;-63
2022/12/12 02:07:40;;;;;;;7.85;2.90;;;;;;;;;;5018016;28;20400;-62
2022/12/12 02:10:10;;;;;;;7.40;2.65;;;;;;;;;;5050907;28;20076;-63
2022/12/12 02:12:40;;;;;;;7.22;2.83;;;;;;;;;;5017617;28;20061;-62
2022/12/12 02:15:10;;;;;;;5.13;2.72;;;;;;;;;;5050697;28;20520;-63
2022/12/12 02:18:06;;;;;;;5.78;2.50;;;;;;;;;;4966479;28;20417;-62
2022/12/12 02:20:40;;;;;;;5.30;2.90;;;;;;;;;;5030994;28;20049;-62
2022/12/12 02:23:48;;;;;;;8.65;2.53;;;;;;;;;;5050565;28;20057;-62
2022/12/12 02:26:27;;;;;;;11.57;3.03;;;;;;;;;;5050519;28;20041;-62
2022/12/12 02:29:12;;;;;;;6.07;2.88;;;;;;;;;;5050715;28;20060;-62
2022/12/12 02:31:51;;;;;;;;;;;;;;;;;;5050698;28;20053;-63
2022/12/12 02:34:31;;;;;;;4.25;2.55;;;;;;;;;;5050245;28;20395;-63
2022/12/12 02:37:04;;;;;;;8.90;2.58;;;;;;;;;;5049744;28;20497;-63
2022/12/12 02:39:46;;;;;;;10.52;2.90;;;;;;;;;;5050577;28;20049;-63
2022/12/12 02:42:19;;;;;;;6.20;2.75;;;;;;;;;;5050504;28;20507;-63
2022/12/12 02:44:59;;;;;;;11.30;2.58;;;;;;;;;;5050284;28;20623;-63
2022/12/12 02:47:38;;;;;;;11.90;2.67;;;;;;;;;;5050175;28;20551;-63
2022/12/12 02:50:13;;;;;;;10.80;3.08;;;;;;;;;;5000811;28;20063;-63
2022/12/12 02:52:46;;;;;;;6.68;2.60;;;;;;;;;;5034611;28;20551;-63
2022/12/12 02:55:16;;;;;;;7.85;3.13;;;;;;;;;;5046365;28;20060;-63
2022/12/12 02:57:47;;;;;;;6.70;2.75;;;;;;;;;;5033047;28;20048;-63
2022/12/12 03:00:20;;;;;;;9.38;2.20;;;;;;;;;;5030366;28;20406;-63
2022/12/12 03:09:21;;;;;;;7.13;3.03;;;;;;;;;;5032603;28;20041;-64
2022/12/12 03:12:08;;;;;;;6.68;2.85;;;;;;;;;;5032178;28;20042;-64
2022/12/12 03:14:47;;;;;;;4.68;2.88;;;;;;;;;;5013879;28;20050;-64
2022/12/12 03:17:35;;;;;;;6.97;3.55;;;;;;;;;;5013536;28;20053;-64
2022/12/12 03:20:13;;;;;;;8.30;3.00;;;;;;;;;;5032109;28;20037;-64
2022/12/12 03:22:52;;;;;;;11.05;2.75;;;;;;;;;;5013709;28;20050;-63
2022/12/12 03:25:27;;;;;;;7.00;2.97;;;;;;;;;;5032591;28;20052;-63
2022/12/12 03:28:06;;;;;;;7.93;2.70;;;;;;;;;;5032573;28;20496;-63
2022/12/12 03:30:46;;;;;;;8.10;3.10;;;;;;;;;;5048877;28;20060;-63
2022/12/12 03:33:39;;;;;;;7.70;3.10;;;;;;;;;;5049558;28;20516;-63
2022/12/12 03:36:15;;;;;;;4.68;2.42;;;;;;;;;;5032762;28;20057;-64
2022/12/12 03:39:04;;;;;;;10.02;3.47;;;;;;;;;;5049308;28;20520;-63
2022/12/12 03:41:39;;;;;;;8.27;3.17;;;;;;;;;;5069036;28;20518;-64
2022/12/12 03:44:17;;;;;;;6.60;2.85;;;;;;;;;;5002731;28;20041;-63
2022/12/12 03:47:13;;;;;;;4.35;2.70;;;;;;;;;;5036026;28;20543;-63
2022/12/12 03:49:58;;;;;;;3.40;2.30;;;;;;;;;;4989778;28;20062;-63
2022/12/12 03:52:49;;;;;;;7.10;2.95;;;;;;;;;;4989777;28;20054;-63
2022/12/12 03:55:28;;;;;;;5.15;2.53;;;;;;;;;;4957117;28;21089;-63
2022/12/12 03:58:21;;;;;;;9.32;3.17;;;;;;;;;;4989693;28;20058;-63
2022/12/12 04:00:54;;;;;;;8.45;3.33;;;;;;;;;;4941774;28;20054;-63
2022/12/12 04:03:47;;;;;;;7.50;2.17;;;;;;;;;;4973487;28;20735;-64
2022/12/12 04:06:28;;;;;;;4.53;2.17;;;;;;;;;;4989630;28;20395;-63
2022/12/12 04:15:22;;;;;;;15.27;3.65;;;;;;;;;;4931605;29;20055;-63
2022/12/12 04:18:17;;;;;;;8.75;3.40;;;;;;;;;;4931446;29;20047;-63
2022/12/12 04:24:15;;;;;;;6.30;2.80;;;;;;;;;;4931683;29;20051;-63
2022/12/12 04:27:09;;;;;;;8.60;2.38;;;;;;;;;;4940580;28;20410;-63
2022/12/12 04:29:53;;;;;;;9.85;3.00;;;;;;;;;;4972934;28;20050;-63
2022/12/12 04:32:30;;;;;;;7.22;2.60;;;;;;;;;;4988872;28;20596;-63
2022/12/12 04:35:28;;;;;;;7.60;2.95;;;;;;;;;;4989027;28;20061;-63
2022/12/12 04:38:05;;;;;;;6.40;2.50;;;;;;;;;;4972708;28;20394;-63
2022/12/12 04:40:39;;;;;;;7.57;2.65;;;;;;;;;;4988855;28;20422;-64
2022/12/12 04:43:28;;;;;;;5.88;2.35;;;;;;;;;;4989003;28;20058;-63
2022/12/12 04:46:12;;;;;;;8.18;2.65;;;;;;;;;;4978834;28;20049;-64
2022/12/12 04:48:48;;;;;;;;;;;;;;;;;;5028855;28;20060;-64
2022/12/12 04:51:49;;;;;;;7.47;2.45;;;;;;;;;;4979711;28;20301;-63
2022/12/12 04:55:08;;;;;;;6.85;3.00;;;;;;;;;;5028227;28;20053;-63
2022/12/12 04:57:44;;;;;;;9.57;3.65;;;;;;;;;;4930890;29;20075;-64
2022/12/12 05:00:16;;;;;;;10.57;3.50;;;;;;;;;;4930825;29;20492;-63
2022/12/12 05:02:56;;;;;;;8.88;3.08;;;;;;;;;;4930812;29;20059;-63
2022/12/12 05:05:49;;;;;;;8.43;2.97;;;;;;;;;;4931116;29;20059;-63
2022/12/12 05:08:40;;;;;;;6.32;3.15;;;;;;;;;;4892953;29;20057;-62
2022/12/12 05:11:23;;;;;;;9.73;2.95;;;;;;;;;;4893065;29;20468;-62
2022/12/12 05:14:10;;;;;;;6.93;3.20;;;;;;;;;;4877709;29;20048;-63
2022/12/12 05:16:48;;;;;;;6.45;3.40;;;;;;;;;;4874364;29;20061;-62
2022/12/12 05:19:19;;;;;;;9.93;3.20;;;;;;;;;;4874528;29;20068;-63
2022/12/12 05:21:49;;;;;;;9.98;2.75;;;;;;;;;;4874326;29;20061;-63
2022/12/12 05:24:20;;;;;;;5.57;3.28;;;;;;;;;;4874504;29;20117;-63
2022/12/12 05:26:50;;;;;;;16.23;3.75;;;;;;;;;;4889442;29;20069;-63
2022/12/12 05:29:22;;;;;;;9.43;3.63;;;;;;;;;;4813750;29;20057;-63
2022/12/12 05:31:51;;;;;;;7.50;3.63;;;;;;;;;;4892839;29;20493;-63
2022/12/12 05:34:21;;;;;;;9.82;4.28;;;;;;;;;;4915534;29;20062;-63
2022/12/12 05:36:50;;;;;;;8.60;3.22;;;;;;;;;;4930618;29;20052;-63
2022/12/12 05:39:21;;;;;;;8.63;3.38;;;;;;;;;;4914465;29;20790;-63
2022/12/12 05:41:51;;;;;;;7.60;2.80;;;;;;;;;;4929664;29;20570;-63
2022/12/12 05:44:21;;;;;;;5.90;3.28;;;;;;;;;;4930518;29;20052;-63
2022/12/12 05:46:51;;;;;;;5.63;2.92;;;;;;;;;;4956019;28;20061;-63
2022/12/12 05:49:20;;;;;;;7.47;3.50;;;;;;;;;;4988649;28;20069;-63
2022/12/12 05:51:50;;;;;;;6.43;3.10;;;;;;;;;;4971844;28;20529;-63
2022/12/12 05:54:20;;;;;;;11.18;3.83;;;;;;;;;;4988486;28;20073;-63
2022/12/12 05:56:49;;;;;;;10.43;3.40;;;;;;;;;;4988202;28;20058;-63
2022/12/12 05:59:20;;;;;;;5.47;2.78;;;;;;;;;;5004462;28;20449;-63
2022/12/12 06:01:51;;;;;;;9.40;3.33;;;;;;;;;;4988314;28;20511;-63
2022/12/12 06:04:21;;;;;;;8.13;2.95;;;;;;;;;;4988275;28;20062;-63
2022/12/12 06:06:51;;;;;;;7.00;3.53;;;;;;;;;;5003536;28;20058;-63
2022/12/12 06:09:20;;;;;;;9.02;3.35;;;;;;;;;;5005139;28;20066;-63
2022/12/12 06:11:50;;;;;;;7.95;3.30;;;;;;;;;;5008977;28;20046;-64
2022/12/12 06:14:20;;;;;;;11.07;3.55;;;;;;;;;;5015125;28;20057;-63
2022/12/12 06:16:49;;;;;;;5.97;2.88;;;;;;;;;;5050754;28;20060;-63
2022/12/12 06:19:20;;;;;;;6.72;2.97;;;;;;;;;;5051026;28;20072;-63
2022/12/12 06:21:49;;;;;;;6.97;3.20;;;;;;;;;;5050890;28;20053;-64
2022/12/12 06:24:19;;;;;;;12.05;3.72;;;;;;;;;;5017847;28;20563;-63
2022/12/12 06:26:48;;;;;;;9.75;3.50;;;;;;;;;;5030852;28;20528;-62
2022/12/12 06:29:18;;;;;;;9.43;4.10;;;;;;;;;;5030554;28;20061;-63
2022/12/12 06:31:48;;;;;;;9.63;3.10;;;;;;;;;;5030647;28;20406;-63
2022/12/12 06:34:17;;;;;;;10.35;3.60;;;;;;;;;;5030510;28;20069;-63
2022/12/12 06:36:47;;;;;;;9.25;4.03;;;;;;;;;;5014576;28;20060;-62
2022/12/12 06:39:16;;;;;;;6.32;2.70;;;;;;;;;;5014424;28;20398;-63
2022/12/12 06:41:46;;;;;;;10.05;3.50;;;;;;;;;;5013768;28;20488;-63
2022/12/12 06:44:17;;;;;;;12.20;4.53;;;;;;;;;;5030511;28;20572;-63
2022/12/12 06:46:46;;;;;;;8.77;3.67;;;;;;;;;;5030376;28;20050;-64
2022/12/12 06:49:17;;;;;;;9.13;3.47;;;;;;;;;;4965362;28;20049;-62
2022/12/12 06:51:47;;;;;;;13.43;3.45;;;;;;;;;;5030605;28;20555;-62
2022/12/12 06:54:18;;;;;;;6.93;3.38;;;;;;;;;;5029985;28;20053;-63
2022/12/12 06:56:48;;;;;;;8.00;2.85;;;;;;;;;;5030208;28;20049;-63
2022/12/12 06:59:18;;;;;;;12.70;3.58;;;;;;;;;;4981080;28;20064;-63
2022/12/12 07:01:47;;;;;;;13.50;3.50;;;;;;;;;;5030346;28;20053;-63
2022/12/12 07:04:17;;;;;;;8.82;3.30;;;;;;;;;;5038721;28;20556;-63
2022/12/12 07:06:47;;;;;;;6.38;3.30;;;;;;;;;;5050189;28;20072;-63
2022/12/12 07:09:18;;;;;;;10.18;3.25;;;;;;;;;;5066367;28;20467;-63
2022/12/12 07:11:48;;;;;;;11.45;3.35;;;;;;;;;;5016454;28;20404;-63
2022/12/12 07:14:17;;;;;;;6.00;3.15;;;;;;;;;;5016740;28;20057;-63
2022/12/12 07:16:47;;;;;;;13.68;4.13;;;;;;;;;;5033368;28;20567;-63
2022/12/12 07:19:17;;;;;;;13.15;3.45;;;;;;;;;;5049774;28;20057;-63
2022/12/12 07:21:46;;;;;;;6.75;3.35;;;;;;;;;;5049334;28;20203;-62
2022/12/12 07:24:16;;;;;;;6.10;3.10;;;;;;;;;;4999859;28;20502;-63
2022/12/12 07:26:46;;;;;;;8.18;3.83;;;;;;;;;;5049839;28;20057;-63
2022/12/12 07:29:16;;;;;;;11.32;3.30;;;;;;;;;;5049650;28;20109;-64
2022/12/12 07:31:46;;;;;;;5.65;3.35;;;;;;;;;;5049236;28;20057;-64
2022/12/12 07:34:16;;;;;;;14.45;4.13;;;;;;;;;;5032498;28;20052;-63
2022/12/12 07:36:46;;;;;;;9.63;3.60;;;;;;;;;;5032830;28;20049;-64
2022/12/12 07:39:19;;;;;;;9.95;3.65;;;;;;;;;;5016408;28;20080;-63
2022/12/12 07:41:48;;;;;;;10.13;3.63;;;;;;;;;;5049544;28;20052;-63
2022/12/12 07:44:21;;;;;;;6.70;2.78;;;;;;;;;;5069056;28;20055;-64
2022/12/12 07:46:51;;;;;;;8.60;3.25;;;;;;;;;;5069039;28;20052;-63
2022/12/12 07:49:21;;;;;;;8.68;3.67;;;;;;;;;;5069114;28;20060;-63
2022/12/12 07:51:51;;;;;;;12.63;3.45;;;;;;;;;;5035623;28;20059;-63
2022/12/12 07:54:21;;;;;;;11.65;3.22;;;;;;;;;;5068087;28;20467;-63
2022/12/12 07:56:50;;;;;;;8.05;3.10;;;;;;;;;;5048621;28;20060;-63
2022/12/12 07:59:20;;;;;;;5.63;2.50;;;;;;;;;;4999624;28;20441;-63
2022/12/12 08:01:50;;;;;;;10.18;3.67;;;;;;;;;;5048895;28;20065;-64
2022/12/12 08:04:20;;;;;;;12.40;3.13;;;;;;;;;;5031051;28;20060;-63
2022/12/12 08:06:49;;;;;;;13.70;3.72;;;;;;;;;;5048686;28;20054;-63
2022/12/12 08:09:28;;;;;;;7.75;3.22;;;;;;;;;;5048859;28;20068;-63
2022/12/12 08:11:58;;;;;;;8.52;3.10;;;;;;;;;;5032310;28;20497;-63
2022/12/12 08:14:28;;;;;;;8.32;3.20;;;;;;;;;;5065263;28;20049;-63
2022/12/12 08:16:58;;;;;;;5.25;3.10;;;;;;;;;;5048741;28;20053;-63
2022/12/12 08:19:28;;;;;;;9.02;3.28;;;;;;;;;;5018655;28;20060;-62
2022/12/12 08:21:58;;;;;;;11.60;3.47;;;;;;;;;;5068216;28;20060;-63
2022/12/12 08:24:28;;;;;;;8.60;2.97;;;;;;;;;;5068474;28;20440;-62
2022/12/12 08:26:58;;;;;;;14.88;3.55;;;;;;;;;;5018849;28;20509;-63
2022/12/12 08:29:27;;;;;;;6.60;3.10;;;;;;;;;;5048179;28;20057;-62
2022/12/12 08:31:57;;;;;;;7.80;3.08;;;;;;;;;;4999073;28;20534;-62
2022/12/12 08:34:27;;;;;;;6.30;3.55;;;;;;;;;;5030706;28;20057;-62
2022/12/12 08:36:58;;;;;;;13.27;3.25;;;;;;;;;;4998458;28;20063;-63
2022/12/12 08:39:28;;;;;;;16.08;3.20;;;;;;;;;;5048529;28;20524;-64
2022/12/12 08:41:57;;;;;;;6.57;3.13;;;;;;;;;;5048296;28;20053;-63
2022/12/12 08:44:27;;;;;;;10.80;3.88;;;;;;;;;;5048298;28;20052;-63
2022/12/12 08:46:57;;;;;;;14.27;3.28;;;;;;;;;;5031316;28;20056;-63
2022/12/12 08:49:27;;;;;;;7.15;3.30;;;;;;;;;;5048404;28;20145;-63
2022/12/12 08:51:57;;;;;;;12.77;4.03;;;;;;;;;;5014781;28;20189;-63
2022/12/12 08:54:26;;;;;;;7.63;3.83;;;;;;;;;;5048179;28;20060;-63
2022/12/12 08:56:56;;;;;;;6.20;3.38;;;;;;;;;;5022345;28;20045;-63
2022/12/12 08:59:26;;;;;;;8.23;2.97;;;;;;;;;;4995645;28;20441;-63
2022/12/12 09:01:55;;;;;;;8.90;3.45;;;;;;;;;;5027990;28;20060;-63
2022/12/12 09:04:26;;;;;;;5.68;3.70;;;;;;;;;;4995030;28;20069;-63
2022/12/12 09:06:56;;;;;;;7.05;3.75;;;;;;;;;;5029245;28;20064;-63
2022/12/12 09:09:31;;;;;;;7.50;4.05;;;;;;;;;;5030720;28;20044;-63
2022/12/12 09:12:00;;;;;;;8.80;3.67;;;;;;;;;;5044582;28;20060;-63
2022/12/12 09:14:30;;;;;;;8.82;3.40;;;;;;;;;;5012032;28;20061;-63
2022/12/12 09:17:00;;;;;;;7.72;3.53;;;;;;;;;;5028280;28;20072;-64
2022/12/12 09:19:29;;;;;;;7.05;3.58;;;;;;;;;;5030648;28;20042;-63
2022/12/12 09:21:59;;;;;;;9.45;3.70;;;;;;;;;;5011989;28;20541;-63
2022/12/12 09:24:28;;;;;;;10.55;3.78;;;;;;;;;;5030400;28;20049;-63
2022/12/12 09:26:58;;;;;;;8.27;3.33;;;;;;;;;;5029408;28;20038;-63
2022/12/12 09:29:28;;;;;;;7.57;3.45;;;;;;;;;;5030468;28;20045;-63
2022/12/12 09:31:58;;;;;;;11.45;3.15;;;;;;;;;;5078068;28;20050;-63
2022/12/12 09:34:27;;;;;;;8.75;3.47;;;;;;;;;;5030484;28;20057;-63
2022/12/12 09:36:58;;;;;;;4.70;2.92;;;;;;;;;;5011536;28;20498;-63
2022/12/12 09:39:28;;;;;;;7.65;3.10;;;;;;;;;;5030264;28;20072;-63
2022/12/12 09:41:57;;;;;;;9.25;2.53;;;;;;;;;;5030439;28;20401;-63
2022/12/12 09:44:27;;;;;;;6.60;2.80;;;;;;;;;;5011601;28;20394;-63
2022/12/12 09:47:05;;;;;;;9.90;3.80;;;;;;;;;;5033306;28;20045;-63
2022/12/12 09:49:55;;;;;;;9.82;3.60;;;;;;;;;;5033919;28;20049;-63
2022/12/12 09:52:31;;;;;;;5.80;3.28;;;;;;;;;;5031473;28;20049;-64
2022/12/12 09:55:22;;;;;;;6.85;3.67;;;;;;;;;;5014833;28;20050;-63
2022/12/12 09:58:26;;;;;;;9.75;3.47;;;;;;;;;;5033763;28;20045;-64
2022/12/12 10:01:11;;;;;;;8.93;3.45;;;;;;;;;;5011136;28;20501;-63
2022/12/12 10:04:02;;;;;;;5.22;3.40;;;;;;;;;;4995101;28;20057;-62
2022/12/12 10:06:47;;;;;;;7.18;4.88;;;;;;;;;;5011341;28;20069;-63
2022/12/12 10:09:28;;;;;;;12.70;4.28;;;;;;;;;;5011355;28;20061;-63
2022/12/12 10:12:01;;;;;;;12.88;4.07;;;;;;;;;;4962697;28;20649;-63
2022/12/12 10:14:46;;;;;;;9.63;4.47;;;;;;;;;;4994881;28;20544;-63
2022/12/12 10:17:18;;;;;;;8.38;3.90;;;;;;;;;;5011653;28;20060;-63
2022/12/12 10:19:55;;;;;;;9.68;3.25;;;;;;;;;;5011146;28;20062;-63
2022/12/12 10:22:35;;;;;;;9.57;3.50;;;;;;;;;;4995130;28;20054;-63
2022/12/12 10:25:20;;;;;;;9.98;3.20;;;;;;;;;;4963378;28;20410;-63
2022/12/12 10:27:55;;;;;;;12.73;3.42;;;;;;;;;;5010837;28;20092;-63
2022/12/12 10:30:27;;;;;;;8.60;4.20;;;;;;;;;;5011012;28;20049;-63
2022/12/12 10:33:20;;;;;;;7.93;3.40;;;;;;;;;;5010776;28;20054;-63
2022/12/12 10:35:57;;;;;;;7.95;4.28;;;;;;;;;;4942918;28;20050;-63
2022/12/12 10:38:42;;;;;;;7.22;3.20;;;;;;;;;;4983930;28;20054;-64
2022/12/12 10:41:59;;;;;;;7.50;3.90;;;;;;;;;;4991300;28;20065;-64
2022/12/12 10:44:47;;;;;;;5.50;3.38;;;;;;;;;;4904831;29;20051;-64
2022/12/12 10:47:17;;;;;;;5.88;3.60;;;;;;;;;;4952261;29;20043;-64
2022/12/12 10:49:48;;;;;;;5.10;3.20;;;;;;;;;;4936722;29;20074;-64
2022/12/12 10:52:20;;;;;;;9.23;3.20;;;;;;;;;;4952175;29;20063;-63
2022/12/12 10:54:57;;;;;;;11.10;3.70;;;;;;;;;;4951555;29;20399;-63
2022/12/12 10:57:32;;;;;;;5.55;3.20;;;;;;;;;;4951460;28;20055;-63
2022/12/12 11:00:17;;;;;;;9.85;4.20;;;;;;;;;;4952084;29;20055;-64
2022/12/12 11:02:47;;;;;;;12.73;4.10;;;;;;;;;;4952072;29;20055;-64
2022/12/12 11:05:26;;;;;;;5.13;3.53;;;;;;;;;;4951055;29;20419;-64
2022/12/12 11:08:17;;;;;;;7.35;4.07;;;;;;;;;;4967253;28;20094;-64
2022/12/12 11:11:20;;;;;;;8.48;3.78;;;;;;;;;;4971031;28;20058;-64
2022/12/12 11:13:51;;;;;;;7.45;4.95;;;;;;;;;;4970221;28;20054;-64
2022/12/12 11:16:42;;;;;;;8.10;4.20;;;;;;;;;;4994712;28;20093;-64
2022/12/12 11:19:23;;;;;;;6.68;4.18;;;;;;;;;;5028668;28;20065;-64
2022/12/12 11:21:54;;;;;;;7.65;3.65;;;;;;;;;;5013552;28;20052;-64
2022/12/12 11:24:30;;;;;;;5.30;3.30;;;;;;;;;;5032452;28;20058;-63
2022/12/12 11:27:05;;;;;;;6.05;3.22;;;;;;;;;;5032340;28;20049;-64
2022/12/12 11:29:47;;;;;;;7.15;3.53;;;;;;;;;;5032194;28;20052;-64
2022/12/12 11:32:19;;;;;;;5.90;3.55;;;;;;;;;;5073945;28;20052;-64
2022/12/12 11:34:55;;;;;;;8.45;2.97;;;;;;;;;;5049329;28;20416;-63
2022/12/12 11:37:34;;;;;;;6.22;3.97;;;;;;;;;;5026583;28;20699;-63
2022/12/12 11:40:09;;;;;;;7.47;3.95;;;;;;;;;;5051000;28;20033;-63
2022/12/12 11:42:39;;;;;;;6.82;3.72;;;;;;;;;;5016802;28;20049;-63
2022/12/12 11:45:09;;;;;;;9.68;4.28;;;;;;;;;;5049494;28;20037;-63
2022/12/12 11:47:41;;;;;;;8.27;4.22;;;;;;;;;;5032591;28;20107;-63
2022/12/12 11:50:26;;;;;;;10.60;5.10;;;;;;;;;;5039144;28;20056;-63
2022/12/12 11:53:02;;;;;;;7.57;4.70;;;;;;;;;;5032783;28;20063;-63
2022/12/12 11:55:57;;;;;;;9.82;5.78;;;;;;;;;;5048939;28;20417;-62
2022/12/12 11:58:39;;;;;;;8.25;4.85;;;;;;;;;;5000133;28;20045;-63
2022/12/12 12:01:25;;;;;;;6.50;4.35;;;;;;;;;;5032693;28;20508;-62
2022/12/12 12:04:23;;;;;;;8.38;4.80;;;;;;;;;;5051429;28;20045;-63
2022/12/12 12:07:08;;;;;;;9.73;4.45;;;;;;;;;;5030902;28;20064;-62
2022/12/12 12:10:01;;;;;;;8.93;4.30;;;;;;;;;;5049147;28;20913;-62
2022/12/12 12:13:00;;;;;;;8.50;4.47;;;;;;;;;;5050682;28;20041;-62
2022/12/12 12:15:50;;;;;;;6.40;3.97;;;;;;;;;;5012439;28;20053;-62
2022/12/12 12:18:31;;;;;;;5.63;3.45;;;;;;;;;;5028752;28;20075;-63
2022/12/12 12:21:10;;;;;;;6.90;3.30;;;;;;;;;;5028735;28;20053;-63
2022/12/12 12:23:51;;;;;;;4.38;2.75;;;;;;;;;;5028556;28;20049;-63
2022/12/12 12:26:39;;;;;;;5.53;2.83;;;;;;;;;;5011898;28;20536;-63
2022/12/12 12:29:30;;;;;;;4.60;2.40;;;;;;;;;;5028828;28;20053;-63
2022/12/12 12:32:09;;;;;;;2.53;1.95;;;;;;;;;;5019273;28;20521;-65
2022/12/12 12:34:44;;;;;;;3.50;2.00;;;;;;;;;;5019593;28;20049;-65
2022/12/12 12:37:20;;;;;;;2.72;1.70;;;;;;;;;;4992370;28;20041;-64
2022/12/12 12:40:12;;;;;;;4.32;1.90;;;;;;;;;;4995627;28;20050;-64
2022/12/12 12:43:02;;;;;;;2.78;1.70;;;;;;;;;;5023035;28;20045;-64
2022/12/12 12:45:56;;;;;;;3.00;1.83;;;;;;;;;;4950254;28;20081;-65
2022/12/12 12:48:36;;;;;;;2.55;1.75;;;;;;;;;;4950281;29;20094;-64
2022/12/12 12:51:24;;;;;;;2.63;1.95;;;;;;;;;;4950150;29;20059;-64
2022/12/12 12:54:21;;;;;;;3.63;1.92;;;;;;;;;;4957796;28;20034;-65
2022/12/12 12:57:33;;;;;;;3.95;2.15;;;;;;;;;;4969153;28;20062;-65
2022/12/12 13:00:09;;;;;;;5.07;1.73;;;;;;;;;;4926942;29;20192;-65
2022/12/12 13:03:00;;;;;;;2.72;1.92;;;;;;;;;;4885428;29;20172;-65
2022/12/12 13:05:51;;;;;;;2.85;1.80;;;;;;;;;;4915243;29;20055;-64
2022/12/12 13:08:25;;;;;;;4.03;2.03;;;;;;;;;;4911913;29;20060;-65
2022/12/12 13:11:08;;;;;;;2.28;1.30;;;;;;;;;;4911062;29;20416;-64
2022/12/12 13:13:41;;;;;;;4.68;1.90;;;;;;;;;;4912159;29;20056;-64
2022/12/12 13:16:15;;;;;;;5.22;1.90;;;;;;;;;;4911529;29;20053;-64
2022/12/12 13:18:54;;;;;;;2.95;2.22;;;;;;;;;;4912037;29;20052;-64
2022/12/12 13:21:53;;;;;;;4.20;1.80;;;;;;;;;;4913625;29;20055;-64
2022/12/12 13:24:41;;;;;;;2.83;1.83;;;;;;;;;;4979251;28;20061;-64
2022/12/12 13:27:28;;;;;;;2.58;1.75;;;;;;;;;;5011806;28;20050;-64
2022/12/12 13:30:00;;;;;;;3.97;1.73;;;;;;;;;;4963309;28;20076;-64
2022/12/12 13:32:39;;;;;;;2.80;1.60;;;;;;;;;;4979314;28;20066;-64
2022/12/12 13:35:16;;;;;;;3.50;2.00;;;;;;;;;;4995255;28;20058;-63
2022/12/12 13:37:53;;;;;;;3.28;2.00;;;;;;;;;;5046772;28;20057;-64
2022/12/12 13:40:30;;;;;;;3.22;1.92;;;;;;;;;;5048419;28;20543;-64
2022/12/12 13:43:03;;;;;;;4.70;1.42;;;;;;;;;;4997960;28;20401;-64
2022/12/12 13:45:43;;;;;;;1.75;1.38;;;;;;;;;;4998471;28;20539;-63
2022/12/12 13:48:28;;;;;;;3.85;1.60;;;;;;;;;;5011520;28;20517;-63
2022/12/12 13:51:31;;;;;;;3.38;1.63;;;;;;;;;;5011537;28;20053;-63
2022/12/12 13:54:07;;;;;;;2.00;1.50;;;;;;;;;;4995190;28;20053;-63
2022/12/12 13:57:09;;;;;;;2.35;1.50;;;;;;;;;;4962200;28;20061;-64
2022/12/12 14:00:05;;;;;;;2.72;1.60;;;;;;;;;;5011272;28;20058;-64
2022/12/12 14:02:44;;;;;;;1.85;1.40;;;;;;;;;;4984969;28;20042;-64
2022/12/12 14:05:50;;;;;;;3.53;1.60;;;;;;;;;;4974881;28;20053;-64
2022/12/12 14:08:26;;;;;;;3.65;1.92;;;;;;;;;;4884266;29;20067;-63
2022/12/12 14:11:00;;;;;;;3.72;1.50;;;;;;;;;;4914948;29;20060;-64
2022/12/12 14:13:41;;;;;;;2.47;1.63;;;;;;;;;;4916522;29;20060;-63
2022/12/12 14:16:21;;;;;;;2.80;1.52;;;;;;;;;;4856464;29;20051;-63
2022/12/12 14:18:51;;;;;;;2.50;1.88;;;;;;;;;;4887137;29;20056;-63
2022/12/12 14:21:37;;;;;;;2.45;1.70;;;;;;;;;;4960106;28;20088;-64
2022/12/12 14:24:32;;;;;;;3.00;1.67;;;;;;;;;;4936625;29;20047;-64
2022/12/12 14:27:10;;;;;;;2.45;1.70;;;;;;;;;;4952376;29;20059;-63
2022/12/12 14:29:42;;;;;;;3.00;1.70;;;;;;;;;;4936976;29;20055;-63
2022/12/12 14:32:12;;;;;;;3.22;1.90;;;;;;;;;;4919020;29;20066;-63
2022/12/12 14:35:30;;;;;;;3.00;1.98;;;;;;;;;;4933186;29;20055;-63
2022/12/12 14:38:26;;;;;;;2.40;1.60;;;;;;;;;;4933465;29;20569;-64
2022/12/12 14:41:03;;;;;;;2.80;2.03;;;;;;;;;;4933764;29;20058;-64
2022/12/12 14:43:39;;;;;;;2.65;1.10;;;;;;;;;;4922753;28;20481;-64
2022/12/12 14:46:17;;;;;;;2.78;2.03;;;;;;;;;;4956255;28;20055;-64
2022/12/12 14:48:48;;;;;;;2.22;1.60;;;;;;;;;;4939275;28;20058;-63
2022/12/12 14:51:27;;;;;;;2.42;1.60;;;;;;;;;;4971493;28;20062;-64
2022/12/12 14:53:59;;;;;;;2.22;1.50;;;;;;;;;;4971632;28;20057;-63
2022/12/12 14:56:35;;;;;;;4.63;1.70;;;;;;;;;;4971682;28;20525;-63
2022/12/12 14:59:06;;;;;;;3.42;1.92;;;;;;;;;;4971604;28;20067;-63
2022/12/12 15:01:43;;;;;;;3.08;1.83;;;;;;;;;;4942245;28;20058;-64
2022/12/12 15:04:24;;;;;;;4.05;1.75;;;;;;;;;;4990396;28;20054;-63
2022/12/12 15:06:56;;;;;;;1.88;1.48;;;;;;;;;;4974329;28;20069;-63
2022/12/12 15:09:33;;;;;;;2.75;1.42;;;;;;;;;;4986624;28;20406;-64
2022/12/12 15:12:21;;;;;;;3.63;1.70;;;;;;;;;;5001244;28;20053;-63
2022/12/12 15:14:51;;;;;;;2.72;2.03;;;;;;;;;;5029783;28;20564;-64
2022/12/12 15:17:31;;;;;;;3.28;1.90;;;;;;;;;;5029610;28;20068;-63
2022/12/12 15:20:13;;;;;;;2.60;1.63;;;;;;;;;;4997136;28;20057;-65
2022/12/12 15:23:01;;;;;;;3.65;1.40;;;;;;;;;;5011081;28;20422;-64
2022/12/12 15:25:46;;;;;;;3.45;1.60;;;;;;;;;;5038510;28;20057;-64
2022/12/12 15:28:20;;;;;;;2.33;1.80;;;;;;;;;;5051063;28;20524;-64
2022/12/12 15:30:53;;;;;;;3.10;1.42;;;;;;;;;;5052045;28;20071;-65
2022/12/12 15:33:25;;;;;;;3.05;1.73;;;;;;;;;;5042942;28;20060;-64
2022/12/12 15:35:58;;;;;;;2.65;2.30;;;;;;;;;;5049298;28;20061;-64
2022/12/12 15:38:31;;;;;;;2.63;1.80;;;;;;;;;;5030618;28;20705;-64
2022/12/12 15:41:05;;;;;;;2.80;1.90;;;;;;;;;;5048959;28;20128;-63
2022/12/12 15:43:43;;;;;;;3.00;1.95;;;;;;;;;;5051723;28;20049;-64
2022/12/12 15:46:15;;;;;;;2.58;1.80;;;;;;;;;;5051563;28;20044;-65
2022/12/12 15:48:48;;;;;;;2.67;1.15;;;;;;;;;;5029211;28;20598;-63
2022/12/12 15:51:19;;;;;;;2.28;1.40;;;;;;;;;;5050733;28;20045;-63
2022/12/12 15:53:56;;;;;;;3.08;1.58;;;;;;;;;;5032189;28;20049;-64